createdAt,value
2018-09-18T00:02:12.171Z,7.92
2018-09-18T00:04:40.203Z,7.12
2018-09-18T00:07:07.744Z,7.58
2018-09-18T00:09:35.769Z,7.05
2018-09-18T00:12:03.530Z,7.70
2018-09-18T00:14:31.343Z,7.33
2018-09-18T00:16:58.989Z,6.92
2018-09-18T00:19:26.491Z,6.83
2018-09-18T00:21:54.140Z,7.20
2018-09-18T00:24:22.089Z,6.92
2018-09-18T00:26:49.795Z,7.28
2018-09-18T00:29:17.374Z,8.38
2018-09-18T00:31:45.400Z,7.70
2018-09-18T00:34:13.058Z,7.28
2018-09-18T00:36:41.105Z,7.60
2018-09-18T00:39:09.789Z,7.12
2018-09-18T00:41:37.447Z,7.08
2018-09-18T00:44:05.428Z,7.80
2018-09-18T00:46:33.131Z,7.08
2018-09-18T00:49:01.333Z,7.95
2018-09-18T00:51:28.998Z,7.85
2018-09-18T00:53:56.761Z,6.70
2018-09-18T00:56:24.350Z,6.90
2018-09-18T00:58:52.165Z,6.85
2018-09-18T01:01:19.750Z,6.87
2018-09-18T01:03:47.399Z,6.80
2018-09-18T01:06:15.241Z,7.62
2018-09-18T01:08:42.787Z,6.08
2018-09-18T01:11:10.867Z,7.65
2018-09-18T01:13:39.197Z,7.03
2018-09-18T01:16:07.115Z,6.95
2018-09-18T01:18:40.958Z,7.42
2018-09-18T01:21:09.039Z,6.47
2018-09-18T01:23:36.533Z,7.00
2018-09-18T01:26:05.961Z,7.05
2018-09-18T01:28:34.363Z,6.60
2018-09-18T01:31:02.754Z,7.20
2018-09-18T01:33:30.322Z,7.05
2018-09-18T01:35:58.432Z,7.60
2018-09-18T01:38:26.224Z,6.50
2018-09-18T01:40:54.298Z,6.65
2018-09-18T01:43:21.876Z,7.15
2018-09-18T01:45:50.868Z,7.28
2018-09-18T01:48:18.677Z,6.45
2018-09-18T01:50:46.301Z,6.45
2018-09-18T01:53:15.290Z,7.62
2018-09-18T01:55:42.940Z,7.37
2018-09-18T01:58:10.695Z,7.08
2018-09-18T02:00:38.334Z,6.40
2018-09-18T02:03:05.943Z,6.75
2018-09-18T02:05:34.920Z,6.90
2018-09-18T02:08:02.740Z,6.50
2018-09-18T02:10:30.519Z,7.03
2018-09-18T02:12:59.310Z,7.42
2018-09-18T02:15:27.264Z,7.00
2018-09-18T02:17:55.101Z,7.22
2018-09-18T02:20:22.707Z,7.08
2018-09-18T02:22:50.868Z,8.15
2018-09-18T02:25:18.548Z,8.25
2018-09-18T02:27:45.911Z,7.45
2018-09-18T02:30:13.893Z,7.28
2018-09-18T02:32:41.716Z,8.38
2018-09-18T02:35:10.312Z,7.08
2018-09-18T02:37:38.102Z,7.30
2018-09-18T02:40:06.302Z,7.70
2018-09-18T02:42:35.861Z,8.40
2018-09-18T02:45:03.892Z,7.80
2018-09-18T02:47:31.635Z,8.70
2018-09-18T02:49:59.609Z,8.18
2018-09-18T02:52:27.680Z,9.10
2018-09-18T02:54:55.477Z,8.35
2018-09-18T02:57:23.076Z,8.48
2018-09-18T02:59:50.642Z,7.92
2018-09-18T03:02:19.309Z,7.47
2018-09-18T03:04:47.113Z,7.53
2018-09-18T03:07:14.768Z,7.62
2018-09-18T03:09:42.953Z,9.05
2018-09-18T03:12:10.655Z,8.05
2018-09-18T03:14:38.422Z,8.65
2018-09-18T03:17:06.022Z,7.87
2018-09-18T03:19:33.876Z,7.78
2018-09-18T03:22:01.709Z,8.03
2018-09-18T03:24:29.243Z,8.55
2018-09-18T03:26:56.846Z,7.47
2018-09-18T03:29:24.550Z,7.22
2018-09-18T03:31:52.517Z,7.22
2018-09-18T03:34:21.243Z,7.47
2018-09-18T03:36:48.875Z,7.25
2018-09-18T03:39:16.456Z,6.60
2018-09-18T03:41:44.641Z,7.65
2018-09-18T03:44:12.567Z,7.42
2018-09-18T03:46:40.233Z,7.10
2018-09-18T03:49:07.795Z,6.60
2018-09-18T03:51:35.658Z,7.20
2018-09-18T03:54:10.253Z,7.05
2018-09-18T03:56:37.885Z,7.67
2018-09-18T03:59:06.155Z,7.83
2018-09-18T04:01:33.988Z,7.78
2018-09-18T04:04:01.558Z,8.03
2018-09-18T04:06:29.624Z,7.22
2018-09-18T04:08:57.901Z,9.18
2018-09-18T04:11:25.931Z,7.58
2018-09-18T04:13:53.583Z,8.10
2018-09-18T04:16:26.303Z,8.13
2018-09-18T04:18:54.286Z,7.65
2018-09-18T04:21:26.164Z,7.25
2018-09-18T04:23:54.046Z,8.50
2018-09-18T04:26:22.110Z,7.75
2018-09-18T04:28:49.949Z,8.20
2018-09-18T04:31:18.009Z,7.85
2018-09-18T04:33:45.785Z,7.62
2018-09-18T04:36:13.760Z,11.50
2018-09-18T04:38:41.314Z,8.83
2018-09-18T04:41:09.248Z,7.55
2018-09-18T04:43:37.151Z,7.03
2018-09-18T04:46:05.379Z,7.78
2018-09-18T04:48:32.964Z,8.15
2018-09-18T04:51:00.854Z,7.60
2018-09-18T04:53:28.916Z,8.40
2018-09-18T04:55:56.638Z,7.78
2018-09-18T04:58:24.815Z,7.70
2018-09-18T05:00:52.461Z,9.93
2018-09-18T05:03:20.570Z,9.10
2018-09-18T05:05:48.758Z,9.25
2018-09-18T05:08:18.287Z,8.55
2018-09-18T05:10:49.568Z,8.00
2018-09-18T05:13:19.721Z,8.15
2018-09-18T05:15:49.473Z,8.90
2018-09-18T05:18:18.651Z,8.18
2018-09-18T05:20:47.663Z,7.40
2018-09-18T05:23:16.937Z,9.15
2018-09-18T05:25:46.900Z,7.95
2018-09-18T05:28:16.697Z,7.85
2018-09-18T05:30:44.608Z,7.65
2018-09-18T05:33:11.920Z,7.70
2018-09-18T05:35:39.481Z,8.10
2018-09-18T05:38:06.902Z,7.67
2018-09-18T05:40:34.926Z,7.97
2018-09-18T05:43:02.344Z,7.90
2018-09-18T05:45:30.219Z,7.65
2018-09-18T05:47:57.624Z,7.60
2018-09-18T05:50:25.061Z,6.80
2018-09-18T05:52:52.548Z,7.40
2018-09-18T05:55:19.963Z,7.72
2018-09-18T05:57:47.608Z,7.40
2018-09-18T06:00:15.380Z,7.55
2018-09-18T06:02:42.830Z,7.40
2018-09-18T06:05:10.636Z,7.80
2018-09-18T06:07:38.365Z,7.40
2018-09-18T06:10:06.155Z,7.42
2018-09-18T06:12:33.877Z,7.50
2018-09-18T06:15:01.317Z,7.37
2018-09-18T06:17:28.766Z,7.67
2018-09-18T06:19:56.454Z,7.03
2018-09-18T06:22:24.540Z,7.13
2018-09-18T06:24:51.936Z,7.07
2018-09-18T06:27:19.304Z,7.37
2018-09-18T06:29:46.701Z,6.80
2018-09-18T06:32:14.149Z,7.40
2018-09-18T06:34:42.137Z,7.03
2018-09-18T06:37:09.807Z,6.90
2018-09-18T06:39:37.134Z,7.33
2018-09-18T06:42:04.497Z,7.33
2018-09-18T06:44:32.194Z,7.80
2018-09-18T06:46:59.578Z,6.80
2018-09-18T06:49:26.992Z,7.20
2018-09-18T06:51:54.620Z,7.77
2018-09-18T06:54:22.143Z,7.50
2018-09-18T06:56:49.556Z,7.27
2018-09-18T06:59:17.184Z,6.93
2018-09-18T07:01:44.931Z,7.53
2018-09-18T07:04:13.075Z,8.00
2018-09-18T07:06:40.746Z,7.60
2018-09-18T07:09:08.583Z,7.20
2018-09-18T07:11:36.113Z,6.67
2018-09-18T07:14:04.182Z,7.20
2018-09-18T07:16:32.033Z,7.20
2018-09-18T07:18:59.804Z,6.73
2018-09-18T07:21:27.721Z,7.33
2018-09-18T07:26:28.913Z,7.00
2018-09-18T07:28:56.654Z,6.90
2018-09-18T07:31:24.272Z,6.77
2018-09-18T07:33:51.913Z,7.20
2018-09-18T07:36:19.360Z,8.20
2018-09-18T07:38:48.384Z,7.63
2018-09-18T07:41:16.411Z,7.17
2018-09-18T07:43:44.544Z,7.43
2018-09-18T07:46:12.209Z,7.03
2018-09-18T07:48:40.123Z,7.30
2018-09-18T07:51:09.760Z,7.60
2018-09-18T07:53:37.612Z,7.70
2018-09-18T07:56:05.337Z,6.73
2018-09-18T07:58:33.460Z,6.80
2018-09-18T08:01:00.993Z,6.80
2018-09-18T08:03:28.629Z,7.37
2018-09-18T08:05:56.541Z,7.20
2018-09-18T08:08:24.165Z,6.90
2018-09-18T08:10:52.169Z,6.93
2018-09-18T08:13:20.095Z,7.30
2018-09-18T08:15:47.883Z,7.47
2018-09-18T08:18:15.613Z,7.27
2018-09-18T08:20:43.974Z,7.00
2018-09-18T08:23:11.608Z,6.93
2018-09-18T08:25:39.213Z,6.90
2018-09-18T08:28:06.810Z,7.80
2018-09-18T08:30:34.458Z,7.37
2018-09-18T08:33:01.973Z,7.30
2018-09-18T08:35:29.747Z,6.47
2018-09-18T08:37:58.553Z,6.73
2018-09-18T08:40:26.570Z,6.77
2018-09-18T08:42:55.476Z,7.43
2018-09-18T08:45:23.032Z,7.20
2018-09-18T08:47:50.971Z,6.50
2018-09-18T08:50:22.953Z,7.40
2018-09-18T08:52:50.657Z,7.00
2018-09-18T08:55:18.383Z,7.10
2018-09-18T08:57:46.111Z,7.30
2018-09-18T09:00:13.812Z,7.03
2018-09-18T09:02:41.935Z,6.63
2018-09-18T09:05:09.980Z,7.37
2018-09-18T09:07:37.501Z,7.27
2018-09-18T09:10:05.397Z,7.37
2018-09-18T09:12:33.390Z,6.80
2018-09-18T09:15:02.369Z,6.93
2018-09-18T09:17:29.868Z,6.90
2018-09-18T09:19:57.546Z,7.30
2018-09-18T09:22:25.460Z,7.20
2018-09-18T09:24:53.258Z,6.83
2018-09-18T09:27:21.140Z,6.33
2018-09-18T09:29:49.254Z,6.87
2018-09-18T09:32:16.885Z,7.40
2018-09-18T09:34:44.958Z,6.80
2018-09-18T09:37:12.759Z,6.97
2018-09-18T09:39:40.087Z,6.00
2018-09-18T09:42:07.590Z,7.00
2018-09-18T09:44:35.168Z,7.53
2018-09-18T09:47:03.932Z,7.27
2018-09-18T09:49:31.661Z,7.40
2018-09-18T09:51:59.559Z,6.80
2018-09-18T09:54:28.236Z,6.90
2018-09-18T09:56:57.463Z,6.70
2018-09-18T09:59:25.159Z,6.63
2018-09-18T10:01:58.215Z,6.80
2018-09-18T10:04:25.924Z,6.30
2018-09-18T10:06:53.619Z,7.33
2018-09-18T10:09:21.550Z,6.73
2018-09-18T10:11:49.354Z,7.17
2018-09-18T10:14:17.392Z,6.00
2018-09-18T10:16:45.276Z,6.67
2018-09-18T10:19:14.240Z,6.60
2018-09-18T10:21:41.894Z,7.00
2018-09-18T10:24:10.299Z,6.50
2018-09-18T10:26:37.976Z,7.30
2018-09-18T10:29:06.402Z,7.60
2018-09-18T10:31:33.946Z,7.53
2018-09-18T10:34:01.715Z,6.80
2018-09-18T10:36:31.670Z,6.30
2018-09-18T10:38:59.904Z,6.30
2018-09-18T10:41:27.744Z,6.00
2018-09-18T10:43:55.683Z,6.60
2018-09-18T10:49:18.400Z,6.77
2018-09-18T10:51:46.123Z,7.37
2018-09-18T10:54:13.763Z,7.00
2018-09-18T10:56:41.677Z,7.10
2018-09-18T10:59:09.619Z,7.10
2018-09-18T11:01:38.358Z,6.30
2018-09-18T11:04:06.193Z,6.70
2018-09-18T11:06:33.937Z,6.47
2018-09-18T11:09:01.793Z,7.47
2018-09-18T11:14:06.949Z,6.20
2018-09-18T11:19:15.117Z,6.40
2018-09-18T11:21:46.424Z,7.40
2018-09-18T11:24:15.570Z,6.40
2018-09-18T11:26:45.621Z,6.53
2018-09-18T11:29:16.307Z,6.73
2018-09-18T11:31:46.619Z,6.80
2018-09-18T11:34:14.222Z,6.70
2018-09-18T11:36:41.598Z,6.70
2018-09-18T11:39:08.881Z,6.40
2018-09-18T11:41:36.177Z,6.73
2018-09-18T11:44:03.495Z,5.73
2018-09-18T11:46:30.948Z,7.10
2018-09-18T11:48:58.237Z,6.30
2018-09-18T11:51:26.188Z,6.27
2018-09-18T11:53:53.444Z,6.20
2018-09-18T11:56:24.824Z,6.10
2018-09-18T11:58:52.219Z,5.90
2018-09-18T12:01:19.561Z,6.00
2018-09-18T12:03:46.841Z,5.93
2018-09-18T12:06:14.113Z,5.80
2018-09-18T12:08:41.541Z,6.37
2018-09-18T12:11:08.892Z,6.57
2018-09-18T12:13:36.201Z,6.00
2018-09-18T12:16:03.570Z,6.37
2018-09-18T12:18:30.850Z,6.70
2018-09-18T12:20:58.206Z,6.47
2018-09-18T12:23:25.534Z,6.33
2018-09-18T12:25:52.814Z,6.57
2018-09-18T12:28:20.150Z,6.80
2018-09-18T12:30:47.438Z,6.23
2018-09-18T12:33:14.756Z,6.00
2018-09-18T12:35:43.211Z,6.47
2018-09-18T12:38:10.524Z,7.07
2018-09-18T12:40:37.921Z,6.83
2018-09-18T12:43:05.215Z,6.70
2018-09-18T12:45:32.519Z,6.80
2018-09-18T12:47:59.893Z,5.77
2018-09-18T12:50:27.334Z,6.23
2018-09-18T12:52:54.616Z,5.70
2018-09-18T12:55:21.934Z,6.60
2018-09-18T12:57:49.573Z,6.90
2018-09-18T13:00:16.989Z,6.23
2018-09-18T13:02:44.470Z,6.47
2018-09-18T13:05:11.994Z,6.50
2018-09-18T13:07:39.265Z,6.80
2018-09-18T13:10:06.670Z,6.50
2018-09-18T13:12:34.310Z,6.80
2018-09-18T13:15:01.954Z,6.87
2018-09-18T13:17:29.771Z,6.57
2018-09-18T13:19:57.347Z,6.00
2018-09-18T13:22:24.908Z,5.90
2018-09-18T13:24:52.663Z,5.87
2018-09-18T13:27:20.035Z,6.60
2018-09-18T13:29:47.531Z,6.33
2018-09-18T13:32:14.867Z,6.50
2018-09-18T13:34:42.493Z,6.10
2018-09-18T13:37:09.895Z,7.07
2018-09-18T13:39:37.178Z,6.53
2018-09-18T13:42:04.741Z,6.70
2018-09-18T13:44:32.412Z,6.30
2018-09-18T13:47:00.032Z,6.70
2018-09-18T13:49:27.385Z,6.87
2018-09-18T13:51:54.792Z,7.03
2018-09-18T13:54:22.068Z,6.60
2018-09-18T13:56:49.470Z,6.93
2018-09-18T13:59:16.867Z,6.30
2018-09-18T14:01:44.380Z,5.90
2018-09-18T14:04:11.587Z,6.60
2018-09-18T14:06:41.449Z,7.10
2018-09-18T14:09:12.097Z,6.67
2018-09-18T14:11:39.780Z,6.73
2018-09-18T14:14:09.683Z,6.63
2018-09-18T14:16:37.732Z,7.10
2018-09-18T14:19:05.428Z,6.57
2018-09-18T14:21:32.690Z,6.07
2018-09-18T14:24:00.038Z,6.80
2018-09-18T14:26:27.530Z,6.80
2018-09-18T14:28:56.027Z,6.80
2018-09-18T14:31:23.357Z,7.30
2018-09-18T14:33:50.668Z,7.90
2018-09-18T14:36:22.316Z,8.43
2018-09-18T14:38:49.763Z,7.87
2018-09-18T14:41:17.120Z,6.90
2018-09-18T14:43:44.422Z,6.90
2018-09-18T14:46:11.744Z,7.17
2018-09-18T14:48:39.025Z,6.63
2018-09-18T14:51:06.389Z,6.57
2018-09-18T14:53:33.656Z,6.40
2018-09-18T14:56:00.977Z,6.53
2018-09-18T14:58:28.258Z,6.83
2018-09-18T15:00:55.620Z,7.43
2018-09-18T15:03:23.820Z,6.60
2018-09-18T15:05:51.173Z,5.93
2018-09-18T15:08:18.594Z,5.87
2018-09-18T15:10:45.927Z,6.37
2018-09-18T15:13:13.225Z,6.53
2018-09-18T15:15:40.653Z,6.00
2018-09-18T15:18:07.898Z,6.67
2018-09-18T15:20:35.265Z,6.20
2018-09-18T15:23:02.698Z,6.07
2018-09-18T15:25:29.989Z,6.10
2018-09-18T15:27:57.403Z,5.63
2018-09-18T15:30:24.871Z,6.07
2018-09-18T15:32:52.296Z,6.33
2018-09-18T15:35:19.664Z,5.87
2018-09-18T15:37:46.975Z,6.70
2018-09-18T15:40:14.325Z,5.80
2018-09-18T15:42:41.613Z,6.63
2018-09-18T15:45:08.897Z,6.27
2018-09-18T15:47:36.196Z,6.07
2018-09-18T15:50:03.509Z,6.10
2018-09-18T15:52:30.859Z,7.40
2018-09-18T15:54:58.189Z,5.90
2018-09-18T15:57:25.552Z,6.93
2018-09-18T15:59:52.873Z,6.50
2018-09-18T16:02:20.161Z,6.17
2018-09-18T16:04:47.450Z,6.40
2018-09-18T16:07:14.751Z,6.43
2018-09-18T16:09:42.070Z,6.50
2018-09-18T16:12:09.338Z,5.80
2018-09-18T16:14:36.694Z,5.93
2018-09-18T16:17:04.032Z,6.27
2018-09-18T16:19:31.350Z,6.43
2018-09-18T16:21:58.723Z,5.80
2018-09-18T16:24:25.998Z,5.40
2018-09-18T16:26:53.791Z,6.07
2018-09-18T16:29:21.106Z,5.97
2018-09-18T16:31:48.430Z,6.37
2018-09-18T16:34:15.738Z,6.13
2018-09-18T16:36:43.042Z,6.70
2018-09-18T16:39:10.527Z,6.50
2018-09-18T16:41:38.103Z,6.17
2018-09-18T16:44:05.383Z,6.30
2018-09-18T16:46:32.685Z,7.00
2018-09-18T16:49:00.733Z,6.30
2018-09-18T16:51:28.047Z,5.80
2018-09-18T16:53:55.360Z,5.83
2018-09-18T16:56:22.690Z,6.23
2018-09-18T16:58:49.967Z,5.73
2018-09-18T17:01:17.363Z,6.40
2018-09-18T17:03:44.769Z,6.00
2018-09-18T17:06:12.053Z,6.50
2018-09-18T17:08:39.355Z,6.73
2018-09-18T17:11:06.687Z,5.93
2018-09-18T17:13:33.970Z,6.03
2018-09-18T17:16:01.449Z,5.90
2018-09-18T17:18:29.202Z,6.03
2018-09-18T17:20:56.452Z,6.97
2018-09-18T17:23:23.766Z,6.37
2018-09-18T17:25:51.118Z,6.17
2018-09-18T17:28:18.507Z,6.30
2018-09-18T17:30:45.856Z,6.53
2018-09-18T17:33:13.191Z,6.37
2018-09-18T17:35:40.512Z,6.93
2018-09-18T17:38:07.764Z,7.10
2018-09-18T17:40:35.085Z,6.47
2018-09-18T17:43:02.422Z,7.13
2018-09-18T17:45:29.704Z,6.57
2018-09-18T17:47:57.069Z,6.97
2018-09-18T17:50:24.403Z,6.90
2018-09-18T17:52:51.643Z,7.40
2018-09-18T17:55:18.968Z,8.17
2018-09-18T17:57:46.237Z,7.47
2018-09-18T18:00:13.507Z,6.90
2018-09-18T18:02:40.791Z,8.30
2018-09-18T18:05:08.066Z,7.43
2018-09-18T18:07:35.320Z,8.77
2018-09-18T18:10:02.648Z,8.93
2018-09-18T18:12:29.985Z,8.10
2018-09-18T18:14:57.338Z,7.20
2018-09-18T18:17:24.685Z,8.67
2018-09-18T18:19:51.963Z,8.17
2018-09-18T18:22:19.270Z,10.30
2018-09-18T18:24:46.575Z,7.83
2018-09-18T18:27:13.834Z,8.60
2018-09-18T18:29:41.146Z,8.90
2018-09-18T18:32:08.777Z,8.50
2018-09-18T18:34:36.104Z,9.00
2018-09-18T18:37:03.536Z,7.97
2018-09-18T18:39:31.301Z,7.83
2018-09-18T18:41:58.962Z,6.63
2018-09-18T18:44:27.359Z,7.30
2018-09-18T18:46:54.703Z,10.77
2018-09-18T18:49:22.149Z,9.60
2018-09-18T18:51:49.482Z,8.43
2018-09-18T18:54:16.789Z,8.50
2018-09-18T18:56:44.107Z,7.37
2018-09-18T18:59:11.418Z,7.13
2018-09-18T19:01:38.729Z,7.00
2018-09-18T19:04:06.151Z,7.57
2018-09-18T19:06:33.726Z,7.83
2018-09-18T19:09:01.048Z,7.60
2018-09-18T19:11:28.912Z,7.93
2018-09-18T19:13:56.321Z,7.60
2018-09-18T19:16:23.725Z,7.67
2018-09-18T19:18:51.214Z,7.50
2018-09-18T19:21:18.515Z,7.87
2018-09-18T19:23:45.904Z,7.30
2018-09-18T19:26:13.357Z,7.83
2018-09-18T19:28:41.834Z,6.77
2018-09-18T19:31:09.429Z,8.10
2018-09-18T19:33:36.719Z,6.77
2018-09-18T19:36:04.223Z,6.77
2018-09-18T19:38:31.600Z,6.70
2018-09-18T19:41:00.316Z,6.43
2018-09-18T19:43:27.760Z,6.37
2018-09-18T19:45:55.252Z,7.10
2018-09-18T19:48:22.609Z,7.00
2018-09-18T19:50:49.947Z,7.10
2018-09-18T19:53:17.246Z,6.50
2018-09-18T19:55:44.558Z,6.50
2018-09-18T19:58:11.840Z,7.63
2018-09-18T20:00:39.292Z,7.43
2018-09-18T20:03:06.787Z,7.10
2018-09-18T20:05:34.820Z,9.10
2018-09-18T20:08:02.205Z,9.10
2018-09-18T20:10:32.993Z,8.90
2018-09-18T20:13:03.609Z,7.80
2018-09-18T20:15:33.548Z,7.10
2018-09-18T20:18:02.512Z,7.17
2018-09-18T20:20:32.260Z,6.60
2018-09-18T20:22:59.918Z,6.33
2018-09-18T20:25:28.487Z,6.40
2018-09-18T20:27:57.046Z,6.77
2018-09-18T20:30:26.572Z,6.67
2018-09-18T20:32:55.247Z,5.90
2018-09-18T20:35:22.727Z,6.10
2018-09-18T20:37:50.831Z,5.57
2018-09-18T20:40:18.099Z,5.50
2018-09-18T20:42:45.457Z,6.10
2018-09-18T20:45:12.754Z,6.97
2018-09-18T20:47:40.004Z,5.90
2018-09-18T20:50:07.381Z,6.73
2018-09-18T20:52:35.608Z,6.30
2018-09-18T20:55:03.206Z,6.00
2018-09-18T20:57:30.451Z,5.70
2018-09-18T20:59:58.215Z,5.87
2018-09-18T21:02:25.528Z,6.20
2018-09-18T21:04:52.952Z,6.33
2018-09-18T21:07:20.272Z,6.17
2018-09-18T21:09:47.529Z,6.60
2018-09-18T21:12:14.869Z,6.10
2018-09-18T21:14:42.195Z,5.90
2018-09-18T21:17:09.457Z,6.57
2018-09-18T21:19:36.709Z,5.97
2018-09-18T21:22:03.976Z,5.13
2018-09-18T21:24:31.522Z,5.77
2018-09-18T21:26:58.912Z,6.00
2018-09-18T21:29:26.282Z,5.90
2018-09-18T21:31:53.701Z,6.70
2018-09-18T21:34:21.032Z,7.30
2018-09-18T21:36:48.317Z,8.67
2018-09-18T21:39:15.945Z,8.60
2018-09-18T21:41:43.706Z,10.33
2018-09-18T21:44:10.964Z,11.90
2018-09-18T21:46:38.196Z,14.23
2018-09-18T21:49:05.525Z,14.07
2018-09-18T21:51:32.827Z,15.20
2018-09-18T21:54:00.296Z,17.00
2018-09-18T21:56:27.589Z,15.27
2018-09-18T21:58:54.858Z,16.00
2018-09-18T22:01:22.163Z,14.50
2018-09-18T22:03:49.521Z,15.20
2018-09-18T22:06:16.814Z,15.03
2018-09-18T22:08:44.091Z,13.97
2018-09-18T22:11:11.405Z,16.67
2018-09-18T22:13:38.732Z,15.67
2018-09-18T22:16:06.099Z,15.03
2018-09-18T22:18:33.398Z,17.90
2018-09-18T22:21:00.662Z,17.53
2018-09-18T22:23:27.928Z,18.93
2018-09-18T22:25:55.463Z,20.07
2018-09-18T22:28:22.726Z,19.77
2018-09-18T22:30:50.042Z,20.37
2018-09-18T22:33:17.389Z,20.70
2018-09-18T22:35:44.944Z,22.40
2018-09-18T22:38:12.212Z,22.90
2018-09-18T22:40:39.476Z,21.70
2018-09-18T22:43:06.869Z,22.47
2018-09-18T22:45:34.134Z,24.00
2018-09-18T22:48:01.547Z,24.90
2018-09-18T22:50:29.033Z,27.00
2018-09-18T22:52:56.461Z,27.00
2018-09-18T22:55:23.816Z,27.70
2018-09-18T22:57:54.554Z,31.27
2018-09-18T23:00:22.499Z,27.57
2018-09-18T23:02:49.779Z,28.57
2018-09-18T23:05:17.546Z,28.33
2018-09-18T23:07:44.929Z,29.13
2018-09-18T23:10:12.318Z,28.70
2018-09-18T23:12:39.711Z,28.43
2018-09-18T23:15:08.693Z,29.20
2018-09-18T23:17:36.048Z,28.90
2018-09-18T23:20:03.400Z,27.47
2018-09-18T23:22:30.763Z,26.93
2018-09-18T23:24:58.071Z,28.03
2018-09-18T23:27:25.385Z,26.87
2018-09-18T23:29:52.697Z,26.20
2018-09-18T23:32:19.985Z,27.33
2018-09-18T23:34:47.286Z,25.27
2018-09-18T23:37:14.593Z,26.10
2018-09-18T23:39:41.917Z,28.00
2018-09-18T23:42:09.323Z,27.17
2018-09-18T23:44:36.600Z,26.53
2018-09-18T23:47:04.194Z,27.10
2018-09-18T23:49:31.571Z,27.33
2018-09-18T23:51:58.937Z,29.13
2018-09-18T23:54:26.326Z,28.10
2018-09-18T23:56:53.615Z,27.57
2018-09-18T23:59:20.960Z,28.40
